ADDS METAR Data INFO
IDs: Format: Raw Decoded Include TAF

Data at: 0112 UTC 21 Oct 2017

KEAR 210056Z AUTO 17023G28KT 10SM CLR 22/13 A2958 RMK AO2 PK WND 17030/0000 SLP005 T02170133
KEAR 202356Z AUTO 17020G29KT 10SM CLR 22/14 A2958 RMK AO2 PK WND 17035/2258 SLP003 T02220139 10250 20217 55006
KEAR 202256Z AUTO 17025G35KT 10SM CLR 23/14 A2958 RMK AO2 PK WND 16039/2203 SLP002 T02280139
KEAR 202156Z AUTO 18025G37KT 10SM CLR 24/13 A2959 RMK AO2 PK WND 18039/2104 SLP006 T02390133
KEAR 202056Z AUTO 18031G36KT 10SM CLR 24/13 A2960 RMK AO2 PK WND 18037/2031 SLP008 T02440133 56029
KEAR 201956Z AUTO 16030G37KT 10SM FEW048 25/13 A2961 RMK AO2 PK WND 16037/1955 SLP011 T02500133
KEAR 201856Z AUTO 17024G32KT 10SM CLR 22/13 A2966 RMK AO2 PK WND 16039/1826 SLP029 T02220128
KEAR 201756Z AUTO 17022G28KT 10SM CLR 22/12 A2969 RMK AO2 PK WND 15028/1750 SLP040 T02220122 10222 20128 58040
KEAR 201656Z AUTO 16022G27KT 10SM CLR 21/12 A2974 RMK AO2 PK WND 16028/1644 SLP059 T02060122
KEAR 201556Z AUTO 17019G23KT 10SM CLR 19/12 A2979 RMK AO2 SLP074 T01890117
KEAR 201456Z AUTO 17016G22KT 10SM CLR 16/10 A2982 RMK AO2 SLP086 T01560100 58007
KEAR 201356Z AUTO 17014KT 10SM CLR 14/09 A2983 RMK AO2 SLP093 T01390094
KEAR 201256Z AUTO 17015KT 10SM CLR 13/09 A2984 RMK AO2 SLP094 T01330089
KEAR 201156Z AUTO 18015KT 10SM CLR 14/09 A2984 RMK AO2 SLP093 T01390089 10156 20139 56013
KEAR 201056Z AUTO 18014KT 10SM CLR 14/09 A2986 RMK AO2 SLP096 T01390089
KEAR 200956Z AUTO 17015G20KT 10SM CLR 14/09 A2986 RMK AO2 SLP095 T01390089
KEAR 200856Z AUTO 17010KT 10SM CLR 14/08 A2988 RMK AO2 SLP103 T01390083 58014
KEAR 200756Z AUTO 17011KT 10SM CLR 14/08 A2990 RMK AO2 SLP110 T01390083
KEAR 200656Z AUTO 18013KT 10SM CLR 14/08 A2992 RMK AO2 SLP116 T01440078
KEAR 200556Z AUTO 18014KT 10SM CLR 16/07 A2993 RMK AO2 SLP120 T01560072 10211 20156 58001
KEAR 200456Z AUTO 18012KT 10SM CLR 16/07 A2993 RMK AO2 SLP124 T01610072 402780028
KEAR 200356Z AUTO 17014KT 10SM CLR 17/07 A2993 RMK AO2 SLP126 T01720067
KEAR 200256Z AUTO 18014KT 10SM CLR 18/06 A2993 RMK AO2 SLP127 T01830056 58001
KEAR 200156Z AUTO 16011KT 10SM CLR 18/08 A2993 RMK AO2 SLP132 T01780078
KEAR 200056Z AUTO 15009KT 10SM CLR 19/09 A2993 RMK AO2 SLP135 T01890089
KEAR 192356Z AUTO 16009KT 10SM CLR 21/09 A2993 RMK AO2 SLP132 T02110094 10278 20211 56004
KEAR 192256Z AUTO 17011KT 10SM CLR 25/10 A2993 RMK AO2 SLP129 T02500100
KEAR 192156Z AUTO 18015G21KT 10SM CLR 27/09 A2994 RMK AO2 SLP131 T02670094
KEAR 192056Z AUTO 19015G21KT 10SM CLR 28/09 A2995 RMK AO2 SLP130 T02780094 56026
KEAR 191956Z AUTO 17016KT 10SM CLR 27/08 A2996 RMK AO2 SLP136 T02720078
KEAR 191856Z AUTO 15014KT 10SM CLR 26/08 A3000 RMK AO2 SLP147 T02610083
KEAR 191756Z AUTO 17009KT 10SM CLR 24/08 A3003 RMK AO2 SLP161 T02390083 10239 20028 58015
KEAR 191656Z AUTO 18005KT 10SM CLR 20/08 A3006 RMK AO2 SLP172 T02000083
KEAR 191556Z AUTO 20003KT 10SM CLR 16/07 A3007 RMK AO2 SLP178 T01560072
KEAR 191456Z AUTO 00000KT 10SM CLR 11/04 A3008 RMK AO2 SLP184 T01110044 53006
KEAR 191356Z AUTO 00000KT 7SM CLR 06/03 A3007 RMK AO2 SLP186 T00610028